Polo, South Dakota
Current Conditions -  °F | °C
As of 11:55 AM on Thursday 30 Oct 2014 (Local Time) from KHON Reporting Station
Overcast Overcast  
Wind Chill: 33°   Ceiling: 1100
Heat Index: 42°   Visibility: 10mi
Dew Point: 37°   Wind: 21mph
Humidity: 82%   Direction: 350°N
Pressure: 30.21"   Gusts: 28mph
Location:  44.8386°N, 99.1119°W
Report Text: KHON 301655Z AUTO 35018G24KT 10SM OVC011 06/03 A3021 RMK AO2 SLP236 T00560028 $
Loading
Personal Weather Stations






























Interactive Weather Map
Tropical Storm Tracking
New forecast layout! Learn more

10-Day Weather Forecast

Advertisements
Track Severe Weather on mobile